Wind From: 11-12-2017 06:00 Until: 12-12-2017 06:00 warning for: Wind Level: Orange info button

Power and phone distribution networks may be disrupted for relatively long periods., Roofs and chimneys can be damaged. , Tree branches may break. , Vehicles can be deported. , Traffic may be disrupted, particularly on secondary roads in forest areas. Limit your trips. , Limit your speed in highway driving, especially if you drive a vehicle or hitch sensitive to wind. , Do not go for walks in forests or along the coast., In town, be vigilant against possible falling objects., Do not work on roofs and do not touch any electrical line fallen on the ground., Store or secure sensitive objects to wind or likely to be damaged., Always install power generators outside buildings. 


Meteo18 Weather Cam more information Meteo18 Weather Cam


Thunder radar more information blitzortung!


Rain radar more information rain snow radar


Visit our other weather sites:

Template documentation
and downloads

And another site



Weather Underground History page Text

Daily Summary for May 19, 2017 Units:  English    Metric   Both
« Previous Day
Next Day »
Daily Weekly Monthly Yearly Custom
  High: Low: Average:
Temperature: 57.6 °F 46.6 °F 50.9 °F
Dew Point: 49.1 °F 43.5 °F 46.4 °F
Humidity: 95 % 62 % 85 %
Wind Speed: 15 mph 0 mph 3.9 mph
Wind Gust: 22 mph - -
Wind:- - WSW
Pressure: 30.1 in 30 in -
Precipitation: 0.35 in    
Historical Graphs
 
 
Tabular Data for May 19, 2017
Time Temperature Dew Point Pressure Wind Wind Speed Wind Gust Humidity Rainfall Rate (Hourly)
00:02 50.7 °F 49.1 °F 30 in WSW 6 mph 15 mph 94 % 0.03 in
00:07 50.7 °F 49.1 °F 30 in SW 5 mph 14 mph 94 % 0.04 in
00:12 50.7 °F 49.1 °F 30 in WSW 5 mph 14 mph 94 % 0.03 in
00:17 50.7 °F 49.1 °F 30 in SW 8 mph 14 mph 94 % 0.03 in
00:22 50.7 °F 49.1 °F 30 in SW 6 mph 14 mph 94 % 0.03 in
00:27 50.5 °F 48.9 °F 30 in WSW 9 mph 13 mph 94 % 0.03 in
00:32 50.5 °F 48.9 °F 30 in SW 7 mph 13 mph 94 % 0.03 in
00:42 50.5 °F 48.9 °F 30 in SW 6 mph 14 mph 94 % 0.02 in
00:47 50.5 °F 48.9 °F 30 in SW 7 mph 14 mph 94 % 0.03 in
00:52 50.5 °F 49.1 °F 30 in SW 9 mph 13 mph 95 % 0.03 in
00:57 50.4 °F 48.9 °F 30 in West 2 mph 16 mph 95 % 0.03 in
01:02 50.4 °F 48.9 °F 30 in SSW 7 mph 16 mph 95 % 0.03 in
01:07 50.4 °F 48.7 °F 30 in SW 7 mph 16 mph 94 % 0.02 in
01:12 50.4 °F 48.7 °F 30 in WSW 7 mph 12 mph 94 % 0.03 in
01:17 50.2 °F 48.6 °F 30 in WSW 4 mph 12 mph 94 % 0.03 in
01:22 50.2 °F 48.6 °F 30 in WSW 7 mph 12 mph 94 % 0.03 in
01:27 50.2 °F 48.6 °F 30 in West 5 mph 12 mph 94 % 0.03 in
01:32 50.2 °F 48.6 °F 30 in SW 8 mph 12 mph 94 % 0.04 in
01:37 50 °F 48 °F 30 in West 4 mph 12 mph 93 % 0.03 in
01:42 49.8 °F 47.8 °F 30 in West 6 mph 12 mph 93 % 0.03 in
01:47 49.6 °F 47.5 °F 30 in West 4 mph 10 mph 92 % 0.02 in
01:52 49.5 °F 47.3 °F 30 in WSW 8 mph 9 mph 92 % 0.02 in
01:57 49.3 °F 46.8 °F 30 in West 7 mph 10 mph 91 % 0.02 in
02:02 49.1 °F 46.6 °F 30 in WNW 3 mph 10 mph 91 % 0.02 in
02:07 48.7 °F 46.2 °F 30 in West 7 mph 10 mph 91 % 0.01 in
02:12 48.6 °F 46 °F 30 in West 5 mph 10 mph 91 % 0.01 in
02:17 48.4 °F 45.9 °F 30 in SW 3 mph 10 mph 91 % 0.01 in
02:22 48 °F 45.5 °F 30 in West 2 mph 10 mph 91 % 0.01 in
02:27 48 °F 45.9 °F 30 in West 4 mph 11 mph 92 % 0.01 in
02:32 48 °F 45.9 °F 30 in WNW 2 mph 11 mph 92 % 0 in
02:39 47.8 °F 45.7 °F 30 in NW 5 mph 11 mph 92 % 0 in
02:47 47.8 °F 45.7 °F 30 in NW 3 mph 11 mph 92 % 0 in
02:52 47.7 °F 45.5 °F 30 in WNW 3 mph 11 mph 92 % 0 in
03:02 47.7 °F 45.1 °F 30 in WNW 2 mph 8 mph 91 % 0 in
03:07 47.7 °F 45.1 °F 30 in West 1 mph 7 mph 91 % 0 in
03:12 47.7 °F 45.5 °F 30 in WNW 2 mph 7 mph 92 % 0 in
03:17 47.7 °F 45.5 °F 30 in Calm   6 mph 92 % 0 in
03:22 47.7 °F 45.5 °F 30 in Calm   6 mph 92 % 0 in
03:27 47.7 °F 45.5 °F 30 in West 1 mph 4 mph 92 % 0 in
03:32 47.7 °F 45.7 °F 30 in West 3 mph 4 mph 93 % 0 in
03:37 47.7 °F 45.7 °F 30 in West 2 mph 5 mph 93 % 0 in
03:42 47.8 °F 45.9 °F 30 in WSW 2 mph 5 mph 93 % 0 in
03:47 47.8 °F 46.2 °F 30 in West 1 mph 6 mph 94 % 0 in
03:52 47.8 °F 46.2 °F 30 in SW 2 mph 6 mph 94 % 0 in
03:57 47.8 °F 46.2 °F 30 in WSW 3 mph 6 mph 94 % 0 in
04:02 47.8 °F 46.2 °F 30 in West 2 mph 6 mph 94 % 0 in
04:12 47.8 °F 46.2 °F 30 in SW 2 mph 5 mph 94 % 0 in
04:17 47.8 °F 46.2 °F 30 in WSW 2 mph 5 mph 94 % 0 in
04:27 48 °F 46.4 °F 30 in WSW 3 mph 5 mph 94 % 0 in
04:32 48 °F 46.4 °F 30 in WSW 2 mph 5 mph 94 % 0 in
04:42 48 °F 46.4 °F 30 in SW 2 mph 5 mph 94 % 0 in
04:47 48 °F 46.4 °F 30 in WSW 1 mph 5 mph 94 % 0 in
04:52 48 °F 46.4 °F 30 in SW 2 mph 5 mph 94 % 0 in
05:02 48.4 °F 46.8 °F 30 in SW 1 mph 4 mph 94 % 0 in
05:12 48.4 °F 46.8 °F 30 in WSW 1 mph 4 mph 94 % 0 in
05:17 48.6 °F 46.9 °F 30 in WSW 1 mph 4 mph 94 % 0 in
05:22 48.6 °F 46.9 °F 30 in WSW 3 mph 4 mph 94 % 0 in
05:32 48.6 °F 46.9 °F 30 in Calm   5 mph 94 % 0 in
05:42 48.7 °F 47.1 °F 30 in WSW 2 mph 5 mph 94 % 0 in
05:52 48.7 °F 47.1 °F 30 in WSW 3 mph 4 mph 94 % 0 in
05:57 48.7 °F 47.1 °F 30 in SW 2 mph 6 mph 94 % 0 in
06:02 48.7 °F 47.1 °F 30 in SSW 2 mph 6 mph 94 % 0 in
06:12 48.7 °F 47.1 °F 30 in SW 1 mph 6 mph 94 % 0 in
06:17 48.7 °F 47.1 °F 30 in WSW 1 mph 5 mph 94 % 0 in
06:27 48.9 °F 47.3 °F 30 in Calm   5 mph 94 % 0 in
06:32 48.9 °F 47.3 °F 30 in West 1 mph 5 mph 94 % 0 in
06:42 48.9 °F 47.3 °F 30 in WSW 2 mph 5 mph 94 % 0 in
06:47 48.9 °F 47.3 °F 30 in West 1 mph 5 mph 94 % 0 in
06:52 49.1 °F 47.5 °F 30 in SW 2 mph 5 mph 94 % 0 in
06:57 49.1 °F 47.5 °F 30 in West 1 mph 5 mph 94 % 0 in
07:02 49.1 °F 47.5 °F 30 in WSW 4 mph 5 mph 94 % 0 in
07:12 49.3 °F 47.7 °F 30 in Calm   4 mph 94 % 0 in
07:17 49.3 °F 47.7 °F 30 in Calm   4 mph 94 % 0 in
07:22 49.3 °F 47.7 °F 30 in Calm   4 mph 94 % 0 in
07:32 49.3 °F 47.7 °F 30 in Calm   6 mph 94 % 0 in
07:42 49.5 °F 47.5 °F 30 in WSW 2 mph 4 mph 93 % 0 in
07:47 49.3 °F 47.3 °F 30 in WSW 4 mph 5 mph 93 % 0 in
07:52 49.5 °F 47.3 °F 30 in West 1 mph 5 mph 92 % 0 in
08:02 49.6 °F 47.5 °F 30 in SW 2 mph 7 mph 92 % 0 in
08:12 49.8 °F 47.7 °F 30 in WSW 7 mph 7 mph 92 % 0 in
08:17 49.8 °F 47.7 °F 30 in SW 5 mph 6 mph 92 % 0 in
08:22 49.8 °F 47.3 °F 30 in West 2 mph 6 mph 91 % 0 in
08:27 49.8 °F 47.3 °F 30 in WSW 7 mph 8 mph 91 % 0 in
08:32 49.8 °F 47.3 °F 30 in SW 5 mph 8 mph 91 % 0 in
08:42 49.6 °F 47.5 °F 30 in SW 4 mph 10 mph 92 % 0 in
08:47 49.6 °F 47.5 °F 30 in SW 2 mph 8 mph 92 % 0 in
08:52 49.5 °F 47.3 °F 30 in SW 3 mph 8 mph 92 % 0 in
09:02 49.5 °F 47.5 °F 30 in SW 3 mph 8 mph 93 % 0.02 in
09:12 49.6 °F 47.7 °F 30 in WSW 2 mph 6 mph 93 % 0.02 in
09:17 49.6 °F 47.5 °F 30 in WSW 4 mph 8 mph 92 % 0.03 in
09:22 50.2 °F 48.2 °F 30 in WSW 4 mph 8 mph 93 % 0.03 in
09:32 50.4 °F 47.8 °F 30 in South 4 mph 8 mph 91 % 0.03 in
09:42 50.9 °F 48.4 °F 30 in WNW 4 mph 9 mph 91 % 0.03 in
09:47 51.1 °F 48.2 °F 30 in West 3 mph 9 mph 90 % 0.02 in
09:52 51.1 °F 47.3 °F 30 in WSW 4 mph 9 mph 87 % 0.02 in
10:02 51.6 °F 47.8 °F 30 in West 3 mph 9 mph 87 % 0.02 in
10:12 51.6 °F 47.3 °F 30 in SSW 5 mph 10 mph 85 % 0.01 in
10:17 51.6 °F 47.3 °F 30 in WNW 3 mph 12 mph 85 % 0 in
10:22 51.6 °F 47.5 °F 30 in West 3 mph 12 mph 86 % 0 in
10:32 50.7 °F 46.8 °F 30 in WNW 2 mph 12 mph 86 % 0 in
10:37 50.4 °F 46.6 °F 30 in WSW 5 mph 11 mph 87 % 0 in
10:42 50 °F 46.6 °F 30.1 in SW 6 mph 11 mph 88 % 0 in
10:52 49.3 °F 46.4 °F 30 in West 2 mph 9 mph 90 % 0.02 in
10:57 49.5 °F 46.6 °F 30 in WNW 2 mph 9 mph 90 % 0.09 in
11:02 50.2 °F 48 °F 30 in WSW 4 mph 9 mph 92 % 0.09 in
11:07 50.5 °F 47.7 °F 30 in WNW 6 mph 9 mph 90 % 0.09 in
11:12 51.1 °F 47.7 °F 30 in SW 5 mph 9 mph 88 % 0.09 in
11:17 51.3 °F 46.6 °F 30 in WSW 6 mph 13 mph 84 % 0.09 in
11:22 51.8 °F 47.7 °F 30 in SSW 5 mph 13 mph 86 % 0.09 in
11:32 53.8 °F 48.4 °F 30 in WSW 8 mph 12 mph 82 % 0.09 in
11:37 54.1 °F 48.4 °F 30 in WSW 6 mph 14 mph 81 % 0.09 in
11:47 54.5 °F 48.4 °F 30.1 in WSW 11 mph 15 mph 80 % 0.03 in
11:52 54 °F 46.6 °F 30.1 in WSW 13 mph 16 mph 76 % 0 in
12:02 54.9 °F 47.5 °F 30 in SSW 8 mph 16 mph 76 % 0 in
12:07 54.9 °F 45.3 °F 30 in WNW 6 mph 15 mph 70 % 0 in
12:12 54.9 °F 45 °F 30 in West 11 mph 16 mph 69 % 0 in
12:17 54.9 °F 47.1 °F 30 in SW 10 mph 16 mph 75 % 0 in
12:22 55 °F 46.2 °F 30 in SW 4 mph 16 mph 72 % 0 in
12:27 55.2 °F 46.4 °F 30 in WSW 8 mph 16 mph 72 % 0 in
12:32 55.2 °F 44.4 °F 30 in SW 3 mph 13 mph 67 % 0 in
12:37 55.8 °F 45.3 °F 30 in SW 6 mph 13 mph 68 % 0 in
12:42 55.9 °F 45.9 °F 30 in WSW 8 mph 13 mph 69 % 0 in
12:47 56.3 °F 46.2 °F 30 in SW 12 mph 15 mph 69 % 0 in
12:57 55.2 °F 46.4 °F 30 in West 5 mph 17 mph 72 % 0 in
13:02 55.4 °F 46.6 °F 30 in SW 7 mph 17 mph 72 % 0 in
13:07 56.5 °F 44.8 °F 30 in SW 10 mph 13 mph 65 % 0 in
13:12 56.5 °F 43.7 °F 30 in WSW 5 mph 13 mph 62 % 0 in
13:17 56.1 °F 45 °F 30 in WSW 5 mph 14 mph 66 % 0 in
13:22 56.5 °F 45.7 °F 30 in WSW 10 mph 14 mph 67 % 0 in
13:32 56.7 °F 45.9 °F 30 in SW 8 mph 14 mph 67 % 0 in
13:37 57 °F 46.2 °F 30 in SW 8 mph 14 mph 67 % 0 in
13:42 57 °F 45 °F 30 in SSW 5 mph 16 mph 64 % 0 in
13:52 57.6 °F 44.6 °F 30 in WSW 15 mph 16 mph 62 % 0 in
13:57 56.1 °F 46.8 °F 30 in WSW 6 mph 22 mph 71 % 0 in
14:02 53.8 °F 46.4 °F 30.1 in SW 13 mph 22 mph 76 % 0 in
14:07 52.5 °F 46.9 °F 30.1 in WSW 15 mph 22 mph 81 % 0 in
14:17 51.8 °F 48 °F 30.1 in WSW 7 mph 19 mph 87 % 0.01 in
14:22 51.8 °F 47.1 °F 30.1 in WSW 5 mph 19 mph 84 % 0.01 in
14:32 51.4 °F 46.2 °F 30.1 in SW 4 mph 15 mph 82 % 0.02 in
14:37 51.3 °F 46.2 °F 30.1 in SW 4 mph 15 mph 83 % 0.02 in
14:42 51.4 °F 46.4 °F 30.1 in WSW 8 mph 15 mph 83 % 0.02 in
14:52 52.9 °F 47.3 °F 30.1 in SW 5 mph 11 mph 81 % 0.02 in
14:57 54 °F 47.7 °F 30 in SSW 5 mph 11 mph 79 % 0.02 in
15:02 55 °F 48 °F 30 in SW 2 mph 11 mph 77 % 0.02 in
15:07 55.8 °F 46 °F 30 in WSW 8 mph 12 mph 70 % 0.02 in
15:12 56.3 °F 46.2 °F 30 in South 6 mph 12 mph 69 % 0.01 in
15:17 56.1 °F 47.3 °F 30 in SW 4 mph 15 mph 72 % 0.01 in
15:22 56.5 °F 45.7 °F 30 in WSW 5 mph 15 mph 67 % 0.01 in
15:32 55.9 °F 44.4 °F 30 in SW 11 mph 15 mph 65 % 0 in
15:37 55.6 °F 43.5 °F 30 in SSW 6 mph 14 mph 64 % 0 in
15:42 55.6 °F 44.8 °F 30 in WSW 6 mph 14 mph 67 % 0 in
15:47 56.1 °F 45.3 °F 30 in West 9 mph 15 mph 67 % 0 in
15:57 57 °F 46.2 °F 30 in SW 2 mph 14 mph 67 % 0 in
16:02 56.8 °F 45.7 °F 30 in SW 7 mph 14 mph 66 % 0 in
16:07 56.8 °F 46 °F 30 in WSW 5 mph 11 mph 67 % 0 in
16:12 56.5 °F 44.4 °F 30 in WSW 6 mph 11 mph 64 % 0 in
16:17 55.9 °F 44.8 °F 30 in WSW 7 mph 11 mph 66 % 0 in
16:22 55.8 °F 43.7 °F 30.1 in West 7 mph 11 mph 64 % 0 in
16:27 55.6 °F 43.5 °F 30.1 in SW 6 mph 13 mph 64 % 0 in
16:32 55.4 °F 44.6 °F 30.1 in West 1 mph 13 mph 67 % 0 in
16:37 55.2 °F 44.4 °F 30 in WSW 4 mph 8 mph 67 % 0 in
16:42 55 °F 44.2 °F 30.1 in WSW 4 mph 8 mph 67 % 0 in
16:47 54.9 °F 44.4 °F 30.1 in SSW 4 mph 10 mph 68 % 0 in
16:52 55 °F 46.2 °F 30.1 in WSW 8 mph 10 mph 72 % 0 in
16:57 54.9 °F 45.3 °F 30.1 in SW 6 mph 12 mph 70 % 0 in
17:02 55.2 °F 46 °F 30.1 in WSW 6 mph 12 mph 71 % 0 in
17:07 55.6 °F 45.5 °F 30.1 in WNW 9 mph 13 mph 69 % 0 in
17:12 55 °F 46.2 °F 30.1 in WNW 6 mph 13 mph 72 % 0 in
17:17 54.3 °F 46.2 °F 30.1 in WNW 2 mph 13 mph 74 % 0 in
17:22 53.6 °F 44.4 °F 30.1 in West 7 mph 13 mph 71 % 0 in
17:32 52.7 °F 44.6 °F 30.1 in WNW 2 mph 10 mph 74 % 0 in
17:37 52.7 °F 45 °F 30 in NW 4 mph 9 mph 75 % 0 in
17:42 52.5 °F 44.4 °F 30 in WNW 3 mph 9 mph 74 % 0 in
17:47 52.3 °F 45 °F 30.1 in NW 2 mph 6 mph 76 % 0 in
17:52 51.8 °F 44.8 °F 30.1 in Calm   6 mph 77 % 0.01 in
18:02 51.1 °F 45.5 °F 30.1 in WNW 4 mph 4 mph 81 % 0.02 in
18:12 50 °F 45.3 °F 30.1 in West 1 mph 13 mph 84 % 0.06 in
18:17 50.2 °F 45.9 °F 30.1 in NW 2 mph 13 mph 85 % 0.06 in
18:22 50.4 °F 46.4 °F 30.1 in NNW 2 mph 13 mph 86 % 0.06 in
18:27 50.4 °F 46.4 °F 30.1 in NNW 4 mph 13 mph 86 % 0.06 in
18:32 50.2 °F 46.2 °F 30.1 in WNW 3 mph 4 mph 86 % 0.06 in
18:37 50.4 °F 46.4 °F 30.1 in NW 2 mph 4 mph 86 % 0.06 in
18:42 50.7 °F 46.4 °F 30.1 in Calm   8 mph 85 % 0.06 in
18:47 51.6 °F 46.6 °F 30.1 in North 3 mph 5 mph 83 % 0.06 in
18:52 51.6 °F 46 °F 30.1 in NNW 4 mph 5 mph 81 % 0.06 in
19:02 52.5 °F 46.6 °F 30.1 in North 1 mph 6 mph 80 % 0.03 in
19:12 52.7 °F 45.3 °F 30.1 in North 1 mph 6 mph 76 % 0 in
19:22 52 °F 45.7 °F 30.1 in North 1 mph 3 mph 79 % 0 in
19:27 51.4 °F 45.9 °F 30.1 in Calm   4 mph 81 % 0 in
19:32 51.3 °F 46 °F 30.1 in WNW 1 mph 4 mph 82 % 0 in
19:42 50.5 °F 45.9 °F 30.1 in NE 1 mph 4 mph 84 % 0.02 in
19:52 49.8 °F 46 °F 30.1 in Calm   4 mph 87 % 0.02 in
19:57 49.8 °F 46 °F 30.1 in Calm   3 mph 87 % 0.02 in
20:02 49.6 °F 45.9 °F 30.1 in Calm   3 mph 87 % 0.02 in
20:12 49.8 °F 46.4 °F 30.1 in Calm   1 mph 88 % 0.02 in
20:17 49.8 °F 46.8 °F 30.1 in Calm     89 % 0.02 in
20:22 50 °F 46.9 °F 30.1 in Calm     89 % 0.02 in
20:32 49.8 °F 46.8 °F 30.1 in Calm     89 % 0.02 in
20:42 49.6 °F 46.8 °F 30.1 in Calm     90 % 0 in
20:47 49.8 °F 47.3 °F 30.1 in Calm   1 mph 91 % 0 in
20:52 49.6 °F 47.1 °F 30.1 in Calm   1 mph 91 % 0 in
20:57 49.5 °F 46.9 °F 30.1 in Calm   1 mph 91 % 0 in
21:02 49.3 °F 46.8 °F 30.1 in Calm   1 mph 91 % 0 in
21:07 49.1 °F 46.6 °F 30.1 in Calm   1 mph 91 % 0 in
21:12 49.1 °F 46.9 °F 30.1 in ESE 1 mph 1 mph 92 % 0 in
21:17 49.1 °F 46.9 °F 30.1 in Calm   1 mph 92 % 0 in
21:22 49.1 °F 46.9 °F 30.1 in Calm   1 mph 92 % 0 in
21:32 48.9 °F 46.8 °F 30.1 in Calm   1 mph 92 % 0 in
21:37 48.7 °F 46.6 °F 30.1 in WSW 2 mph 2 mph 92 % 0 in
21:42 48.7 °F 46.2 °F 30.1 in WSW 10 mph 10 mph 91 % 0.03 in
21:52 47.8 °F 44.4 °F 30.1 in WNW 1 mph 13 mph 88 % 0.06 in
21:57 47.8 °F 44.4 °F 30.1 in West 1 mph 13 mph 88 % 0.07 in
22:02 47.7 °F 44.2 °F 30.1 in Calm   13 mph 88 % 0.07 in
22:12 47.5 °F 44.4 °F 30.1 in WNW 3 mph 6 mph 89 % 0.07 in
22:17 47.3 °F 44.2 °F 30.1 in SSW 3 mph 6 mph 89 % 0.07 in
22:22 47.3 °F 44.6 °F 30.1 in WSW 4 mph 6 mph 90 % 0.07 in
22:32 47.1 °F 44.6 °F 30.1 in SSW 4 mph 7 mph 91 % 0.07 in
22:42 47.1 °F 45 °F 30.1 in Calm   7 mph 92 % 0.02 in
22:47 47.1 °F 45 °F 30.1 in SE 2 mph 5 mph 92 % 0.01 in
22:52 46.9 °F 45 °F 30.1 in SSW 2 mph 5 mph 93 % 0.01 in
22:57 46.9 °F 45 °F 30.1 in SSW 2 mph 5 mph 93 % 0 in
23:02 46.9 °F 45 °F 30.1 in SSW 2 mph 5 mph 93 % 0 in
23:12 46.8 °F 44.8 °F 30.1 in South 3 mph 4 mph 93 % 0 in
23:17 46.6 °F 45 °F 30.1 in SSW 4 mph 5 mph 94 % 0 in
23:22 46.6 °F 45 °F 30.1 in SW 6 mph 6 mph 94 % 0 in
23:32 46.6 °F 45 °F 30.1 in SSW 6 mph 6 mph 94 % 0 in
23:42 46.6 °F 45 °F 30.1 in SSW 2 mph 8 mph 94 % 0 in
23:47 46.6 °F 45.1 °F 30.1 in SSW 3 mph 8 mph 95 % 0 in
23:52 46.6 °F 45.1 °F 30.1 in SSW 2 mph 8 mph 95 % 0 in
Meteo18
Compliments of Weather Underground - 4 mb

Script developed by  Jim McMurry - jmcmurry@mwt.net Adapted for the template by  Wim van der Kuil - Leuven-Template.eu

You find our weather info also at:

European Weather Network

Weather Underground

Equipment we use:

Weather-station
Davis Vue

Weather-program
Meteohub

Weather-server
Raspberry PI 2 B+

Provider
1 and 1

Davis Vue

Meteohub

Raspberry PI 2 B+

1 and 1